Ana Sayfa
METAR-TAF:

METAR-TAF

Havaalanları :

Moore County Airport

Pinehurst / Southern Pines, Kuzey Carolina, Amerika Birleşik Devletleri

Enlem: 35-14N, Boylam: 079-24W, yükseklik: 141 m

Güncel hava durumu gözlemi

Rapor saat 13:56 UTC de 18 dakika önce yapıldı.
Rüzgar değişken yönden 5 kt
Sıcaklık 17°C
Nem 63%
Basınç 1021 hPa
Görüş mesafesi: 16.1 km
Açık gökyüzü

METAR: KSOP 241356Z AUTO VRB05KT 10SM CLR 17/10 A3015 RMK AO2 SLP214 T01720100

Saat: 10:14 (14:14 UTC)


TAF: eksik

4.000'den fazla havaalanı için hava durumu gözlemleri ve tahminleri (METAR ve TAF raporları).

Kullanılabilir istasyonlar harita üzerinde sarı ve kırmızı noktalarla gösterilir.

İstasyonun adını görmek için fareyi noktanın üzerinde gezdirin.

Sonrasında hava gözlem ve tahminlerini görmek için tıklayın.

Haritayı değiştirmek için: yaklaştırmak için siyah artı işaretli yeşil düğmeye ve uzaklaştırmak için de eksi işaretli düğmeye hızla tıklayın; bitişik haritalar için yeşil okları kullanın.


METAR-TAF: